History for IWARWICK28

Hinson's Island, Warwick, WARWICK — Current Conditions
Daily Summary for November 12, 2018
  Current: High: Low: Average:
Temperature: 71.2°F 72.4°F 67.9°F 70.2°F
Dew Point: 61.3°F 62.5°F 43.9°F 57.4°F
Humidity: 71% 71% 40% 64%
Wind Speed: 3.0mph 21.0mph - 8.2mph
Wind Gust: 7.0mph 24.0mph - -
Wind: NE - - NE
Pressure: 30.32in 30.33in 30.10in -
Precipitation: 0.38in      
Solar Radiation: 0 watts/m^2      
UV Index: 0.0      
Statistics for the rest of the month
    High: Low: Average:
Temperature:   81.4°F 66.1°F 75.3°F
Dew Point:   69.4°F 43.9°F 59.6°F
Humidity:   71.0% 37.0% 60.5%
Wind Speed:   21.0mph from the NE - 3.7mph
Wind Gust:   24.0mph from the NNE - -
Wind:   - - ESE
Pressure:   30.33in 29.95in -
Precipitation:   0.77in    
IWARWICK28 Weather Graph
Tabular Data for November 12, 2018
Time Temp. Dew Point Pressure Wind Gust Humidity Rainfall Solar Radiation
00:10 72.2°F 55.1°F 30.10in 15.0mph 55% 0.00in 0.00 watts/m^2
00:20 71.8°F 53.2°F 30.10in 13.0mph 52% 0.00in 0.00 watts/m^2
00:40 71.2°F 49.4°F 30.10in 14.0mph 46% 0.00in 0.00 watts/m^2
00:45 71.0°F 49.2°F 30.10in 15.0mph 46% 0.00in 0.00 watts/m^2
00:50 70.8°F 48.4°F 30.10in 16.0mph 45% 0.00in 0.00 watts/m^2
00:55 70.8°F 47.8°F 30.10in 16.0mph 44% 0.00in 0.00 watts/m^2
01:00 70.8°F 47.8°F 30.10in 17.0mph 44% 0.00in 0.00 watts/m^2
01:25 70.3°F 46.7°F 30.10in 12.0mph 43% 0.18in 0.00 watts/m^2
01:35 70.1°F 45.9°F 30.10in 15.0mph 42% 0.07in 0.00 watts/m^2
01:45 69.8°F 45.7°F 30.10in 12.0mph 42% 0.05in 0.00 watts/m^2
02:00 70.0°F 45.8°F 30.11in 11.0mph 42% 0.00in 0.00 watts/m^2
02:15 70.1°F 45.3°F 30.11in 14.0mph 41% 0.00in 0.00 watts/m^2
02:40 69.8°F 45.0°F 30.11in 14.0mph 41% 0.20in 0.00 watts/m^2
02:45 69.7°F 44.9°F 30.10in 19.0mph 41% 0.11in 0.00 watts/m^2
03:00 69.6°F 44.2°F 30.10in 21.0mph 40% 0.04in 0.00 watts/m^2
03:05 69.5°F 44.1°F 30.10in 21.0mph 40% 0.00in 0.00 watts/m^2
03:10 69.4°F 44.0°F 30.10in 19.0mph 40% 0.00in 0.00 watts/m^2
03:35 69.6°F 44.2°F 30.11in 18.0mph 40% 0.00in 0.00 watts/m^2
03:40 69.6°F 44.8°F 30.11in 19.0mph 41% 0.00in 0.00 watts/m^2
04:05 69.8°F 46.3°F 30.11in 17.0mph 43% 0.00in 0.00 watts/m^2
04:10 69.9°F 47.0°F 30.11in 17.0mph 44% 0.00in 0.00 watts/m^2
04:30 69.6°F 46.7°F 30.12in 18.0mph 44% 0.00in 0.00 watts/m^2
04:45 69.3°F 45.2°F 30.12in 19.0mph 42% 0.13in 0.00 watts/m^2
05:00 68.8°F 44.1°F 30.13in 24.0mph 41% 0.15in 0.00 watts/m^2
05:10 68.5°F 43.9°F 30.14in 21.0mph 41% 0.04in 0.00 watts/m^2
05:15 68.5°F 43.9°F 30.14in 21.0mph 41% 0.00in 0.00 watts/m^2
05:55 67.9°F 44.0°F 30.16in 22.0mph 42% 0.00in 0.00 watts/m^2
06:10 68.0°F 44.7°F 30.16in 19.0mph 43% 0.00in 0.00 watts/m^2
06:45 68.3°F 46.1°F 30.18in 21.0mph 45% 0.00in 0.00 watts/m^2
07:35 68.4°F 48.5°F 30.20in 18.0mph 49% 0.00in 25.00 watts/m^2
07:50 68.3°F 50.0°F 30.21in 16.0mph 52% 0.00in 67.00 watts/m^2
08:10 68.7°F 53.3°F 30.21in 15.0mph 58% 0.00in 125.00 watts/m^2
08:15 69.0°F 54.1°F 30.21in 15.0mph 59% 0.00in 135.00 watts/m^2
08:35 69.7°F 56.1°F 30.22in 15.0mph 62% 0.00in 171.00 watts/m^2
08:40 70.0°F 56.4°F 30.22in 13.0mph 62% 0.00in 229.00 watts/m^2
09:25 68.4°F 51.1°F 30.24in 16.0mph 54% 0.00in 86.00 watts/m^2
09:55 69.4°F 54.0°F 30.25in 19.0mph 58% 0.00in 104.00 watts/m^2
10:20 71.3°F 58.1°F 30.24in 16.0mph 63% 0.00in 241.00 watts/m^2
10:45 71.9°F 60.8°F 30.24in 21.0mph 68% 0.00in 598.00 watts/m^2
11:10 72.3°F 62.0°F 30.24in 13.0mph 70% 0.00in 325.00 watts/m^2
11:15 72.0°F 61.7°F 30.24in 16.0mph 70% 0.00in 290.00 watts/m^2
11:20 72.1°F 61.8°F 30.24in 13.0mph 70% 0.00in 390.00 watts/m^2
12:50 69.8°F 58.3°F 30.23in 7.0mph 67% 0.00in 100.00 watts/m^2
13:00 69.5°F 57.2°F 30.23in 7.0mph 65% 0.00in 93.00 watts/m^2
13:20 69.5°F 55.9°F 30.21in 3.0mph 62% 0.00in 132.00 watts/m^2
13:40 70.8°F 59.7°F 30.21in 11.0mph 68% 0.00in 153.00 watts/m^2
14:35 70.9°F 60.2°F 30.22in 9.0mph 69% 0.00in 107.00 watts/m^2
14:40 70.9°F 60.6°F 30.22in 6.0mph 70% 0.00in 93.00 watts/m^2
14:55 71.4°F 61.1°F 30.22in 16.0mph 70% 0.00in 190.00 watts/m^2
15:10 71.8°F 61.5°F 30.22in 8.0mph 70% 0.00in 134.00 watts/m^2
15:15 71.7°F 61.4°F 30.22in 10.0mph 70% 0.00in 132.00 watts/m^2
15:20 71.6°F 61.7°F 30.22in 10.0mph 71% 0.00in 128.00 watts/m^2
15:25 71.6°F 61.7°F 30.22in 10.0mph 71% 0.00in 141.00 watts/m^2
15:30 71.8°F 61.9°F 30.22in 9.0mph 71% 0.00in 153.00 watts/m^2
15:35 71.8°F 61.9°F 30.22in 9.0mph 71% 0.00in 230.00 watts/m^2
15:40 72.1°F 61.8°F 30.22in 13.0mph 70% 0.00in 223.00 watts/m^2
15:45 72.2°F 62.3°F 30.22in 13.0mph 71% 0.00in 332.00 watts/m^2
15:50 72.4°F 62.5°F 30.22in 8.0mph 71% 0.00in 199.00 watts/m^2
15:55 72.4°F 62.5°F 30.22in 12.0mph 71% 0.00in 251.00 watts/m^2
16:00 72.1°F 62.2°F 30.23in 7.0mph 71% 0.00in 113.00 watts/m^2
16:05 72.0°F 62.1°F 30.23in 10.0mph 71% 0.00in 100.00 watts/m^2
16:10 71.8°F 61.9°F 30.23in 10.0mph 71% 0.00in 127.00 watts/m^2
16:15 71.9°F 62.0°F 30.23in 10.0mph 71% 0.00in 88.00 watts/m^2
16:20 71.8°F 61.9°F 30.23in 6.0mph 71% 0.00in 88.00 watts/m^2
16:25 72.0°F 62.1°F 30.23in 7.0mph 71% 0.00in 116.00 watts/m^2
16:30 72.1°F 62.2°F 30.23in 5.0mph 71% 0.00in 98.00 watts/m^2
16:35 71.9°F 62.0°F 30.23in 5.0mph 71% 0.00in 58.00 watts/m^2
16:40 72.0°F 62.1°F 30.23in 11.0mph 71% 0.00in 63.00 watts/m^2
16:45 71.9°F 62.0°F 30.23in 11.0mph 71% 0.00in 37.00 watts/m^2
16:50 71.5°F 61.6°F 30.23in 5.0mph 71% 0.00in 21.00 watts/m^2
16:55 71.5°F 61.6°F 30.24in 5.0mph 71% 0.00in 19.00 watts/m^2
17:00 71.3°F 61.4°F 30.24in 5.0mph 71% 0.00in 16.00 watts/m^2
17:05 71.2°F 61.3°F 30.24in 5.0mph 71% 0.00in 12.00 watts/m^2
17:10 71.1°F 61.2°F 30.24in 5.0mph 71% 0.00in 9.00 watts/m^2
17:15 71.0°F 61.1°F 30.24in 5.0mph 71% 0.00in 7.00 watts/m^2
17:20 71.0°F 61.1°F 30.24in 5.0mph 71% 0.00in 0.00 watts/m^2
17:25 71.0°F 61.1°F 30.24in 5.0mph 71% 0.00in 0.00 watts/m^2
17:30 71.0°F 61.1°F 30.24in 5.0mph 71% 0.00in 0.00 watts/m^2
17:35 71.0°F 61.1°F 30.24in 5.0mph 71% 0.00in 0.00 watts/m^2
17:40 71.0°F 61.1°F 30.25in 5.0mph 71% 0.00in 0.00 watts/m^2
17:45 71.0°F 61.1°F 30.24in 6.0mph 71% 0.00in 0.00 watts/m^2
17:50 71.1°F 61.2°F 30.24in 9.0mph 71% 0.00in 0.00 watts/m^2
17:55 71.1°F 61.2°F 30.24in 9.0mph 71% 0.00in 0.00 watts/m^2
18:00 71.2°F 61.3°F 30.24in 6.0mph 71% 0.00in 0.00 watts/m^2
18:05 71.1°F 61.2°F 30.24in 7.0mph 71% 0.00in 0.00 watts/m^2
18:10 71.0°F 61.1°F 30.25in 6.0mph 71% 0.00in 0.00 watts/m^2
18:15 70.9°F 61.0°F 30.24in 6.0mph 71% 0.00in 0.00 watts/m^2
18:20 71.0°F 61.1°F 30.24in 5.0mph 71% 0.00in 0.00 watts/m^2
18:25 71.0°F 61.1°F 30.25in 5.0mph 71% 0.00in 0.00 watts/m^2
18:30 70.9°F 61.0°F 30.25in 6.0mph 71% 0.00in 0.00 watts/m^2
18:35 70.9°F 61.0°F 30.25in 6.0mph 71% 0.00in 0.00 watts/m^2
18:40 70.8°F 60.9°F 30.25in 4.0mph 71% 0.00in 0.00 watts/m^2
18:45 70.9°F 61.0°F 30.25in 4.0mph 71% 0.00in 0.00 watts/m^2
18:50 70.8°F 60.9°F 30.25in 4.0mph 71% 0.00in 0.00 watts/m^2
18:55 70.8°F 60.9°F 30.25in 7.0mph 71% 0.00in 0.00 watts/m^2
19:00 70.8°F 60.9°F 30.25in 6.0mph 71% 0.00in 0.00 watts/m^2
19:05 70.7°F 60.8°F 30.25in 6.0mph 71% 0.00in 0.00 watts/m^2
19:10 70.7°F 60.8°F 30.25in 6.0mph 71% 0.00in 0.00 watts/m^2
19:15 70.6°F 60.7°F 30.26in 7.0mph 71% 0.00in 0.00 watts/m^2
19:20 70.8°F 60.9°F 30.26in 3.0mph 71% 0.00in 0.00 watts/m^2
19:25 70.6°F 60.7°F 30.26in 6.0mph 71% 0.00in 0.00 watts/m^2
19:30 70.6°F 60.7°F 30.26in 4.0mph 71% 0.00in 0.00 watts/m^2
19:35 70.7°F 60.8°F 30.27in 4.0mph 71% 0.00in 0.00 watts/m^2
19:40 70.8°F 60.9°F 30.27in 4.0mph 71% 0.00in 0.00 watts/m^2
19:45 70.8°F 60.9°F 30.27in 4.0mph 71% 0.00in 0.00 watts/m^2
19:50 70.6°F 60.7°F 30.27in 9.0mph 71% 0.00in 0.00 watts/m^2
19:55 70.7°F 60.8°F 30.27in 9.0mph 71% 0.00in 0.00 watts/m^2
20:00 70.7°F 60.8°F 30.27in 5.0mph 71% 0.00in 0.00 watts/m^2
20:05 70.7°F 60.8°F 30.27in 5.0mph 71% 0.00in 0.00 watts/m^2
20:10 70.7°F 60.8°F 30.27in 4.0mph 71% 0.00in 0.00 watts/m^2
20:15 70.8°F 60.9°F 30.27in 7.0mph 71% 0.00in 0.00 watts/m^2
20:20 70.7°F 60.8°F 30.28in 4.0mph 71% 0.00in 0.00 watts/m^2
20:25 70.6°F 60.7°F 30.28in 4.0mph 71% 0.00in 0.00 watts/m^2
20:30 70.6°F 60.7°F 30.28in 4.0mph 71% 0.00in 0.00 watts/m^2
20:35 70.7°F 60.8°F 30.28in 4.0mph 71% 0.00in 0.00 watts/m^2
20:40 70.7°F 60.8°F 30.29in 5.0mph 71% 0.00in 0.00 watts/m^2
20:45 70.7°F 60.8°F 30.29in 5.0mph 71% 0.00in 0.00 watts/m^2
20:50 70.8°F 60.9°F 30.29in 6.0mph 71% 0.00in 0.00 watts/m^2
20:55 70.9°F 61.0°F 30.30in 7.0mph 71% 0.00in 0.00 watts/m^2
21:00 70.9°F 61.0°F 30.30in 6.0mph 71% 0.00in 0.00 watts/m^2
21:05 70.8°F 60.9°F 30.31in 6.0mph 71% 0.00in 0.00 watts/m^2
21:10 70.7°F 60.8°F 30.31in 5.0mph 71% 0.00in 0.00 watts/m^2
21:15 70.8°F 60.9°F 30.31in 5.0mph 71% 0.00in 0.00 watts/m^2
21:20 70.7°F 60.8°F 30.32in 5.0mph 71% 0.00in 0.00 watts/m^2
21:25 70.9°F 61.0°F 30.32in 5.0mph 71% 0.00in 0.00 watts/m^2
21:30 70.8°F 60.9°F 30.32in 4.0mph 71% 0.00in 0.00 watts/m^2
21:35 70.7°F 60.8°F 30.32in 4.0mph 71% 0.00in 0.00 watts/m^2
21:40 70.8°F 60.9°F 30.32in 4.0mph 71% 0.00in 0.00 watts/m^2
21:45 70.9°F 61.0°F 30.32in 4.0mph 71% 0.00in 0.00 watts/m^2
21:50 70.9°F 61.0°F 30.33in 7.0mph 71% 0.00in 0.00 watts/m^2
21:55 71.0°F 61.1°F 30.33in 7.0mph 71% 0.00in 0.00 watts/m^2
22:00 71.1°F 60.8°F 30.33in 4.0mph 70% 0.00in 0.00 watts/m^2
22:05 71.3°F 61.4°F 30.32in 4.0mph 71% 0.00in 0.00 watts/m^2
22:10 71.2°F 61.3°F 30.33in 7.0mph 71% 0.00in 0.00 watts/m^2
Comma Delimited File
Powered by Weather Underground, Inc.